Ammon, Virginia
Current Conditions -  °F | °C
As of 3:15 PM on Monday 24 Nov 2014 (Local Time) from KPTB Reporting Station
Broken Clouds Broken Clouds  
Wind Chill: 74°   Ceiling: 10000
Heat Index: 74°   Visibility: 10mi
Dew Point: 57°   Wind: 12mph
Humidity: 56%   Direction: 200°SSW
Pressure: 29.72"   Gusts: 23mph
Location:  37.16°N, 77.59°W
Report Text: KPTB 242015Z AUTO 20010G20KT 140V220 10SM BKN100 23/14 A2972 RMK AO2 T02330140
Loading
Personal Weather Stations






























Interactive Weather Map New forecast layout! Learn more

10-Day Weather Forecast

Advertisements
Track Severe Weather on mobile